createdAt,value
2023-02-14T00:02:24.386Z,0.10
2023-02-14T00:04:52.586Z,0.20
2023-02-14T00:07:19.409Z,0.20
2023-02-14T00:09:46.180Z,0.10
2023-02-14T00:12:13.192Z,0.10
2023-02-14T00:14:40.169Z,0.00
2023-02-14T00:17:06.950Z,-0.20
2023-02-14T00:19:34.714Z,-0.10
2023-02-14T00:22:03.194Z,-0.30
2023-02-14T00:24:30.378Z,-0.40
2023-02-14T00:26:57.086Z,0.00
2023-02-14T00:29:27.033Z,-0.10
2023-02-14T00:31:53.831Z,-0.10
2023-02-14T00:34:20.784Z,-0.10
2023-02-14T00:36:47.866Z,-0.20
2023-02-14T00:39:16.996Z,-0.20
2023-02-14T00:41:44.306Z,-0.30
2023-02-14T00:44:12.826Z,-0.30
2023-02-14T00:46:41.844Z,-0.20
2023-02-14T00:49:08.509Z,-0.40
2023-02-14T00:51:35.353Z,-0.50
2023-02-14T00:54:02.140Z,-0.50
2023-02-14T00:56:30.222Z,-0.50
2023-02-14T00:58:57.019Z,-0.50
2023-02-14T01:01:23.845Z,-0.50
2023-02-14T01:03:50.683Z,-0.60
2023-02-14T01:06:17.519Z,-0.80
2023-02-14T01:08:44.296Z,-0.70
2023-02-14T01:11:14.027Z,-0.70
2023-02-14T01:13:43.090Z,-0.50
2023-02-14T01:16:11.219Z,-0.70
2023-02-14T01:18:38.994Z,-0.70
2023-02-14T01:21:14.168Z,-0.70
2023-02-14T01:23:41.215Z,-0.70
2023-02-14T01:26:08.608Z,-0.80
2023-02-14T01:28:35.816Z,-0.80
2023-02-14T01:31:09.688Z,-0.80
2023-02-14T01:33:37.196Z,-0.90
2023-02-14T01:36:04.369Z,-0.80
2023-02-14T01:38:31.180Z,-0.90
2023-02-14T01:40:58.701Z,-0.90
2023-02-14T01:43:25.795Z,-0.90
2023-02-14T01:45:52.607Z,-0.90
2023-02-14T01:48:22.776Z,-0.90
2023-02-14T01:50:51.323Z,-0.90
2023-02-14T01:53:24.597Z,-0.90
2023-02-14T01:55:58.245Z,-0.80
2023-02-14T01:58:29.619Z,-0.80
2023-02-14T02:00:56.587Z,-0.80
2023-02-14T02:03:28.124Z,-0.70
2023-02-14T02:05:59.525Z,-0.70
2023-02-14T02:08:26.691Z,-0.70
2023-02-14T02:10:53.625Z,-0.80
2023-02-14T02:13:22.527Z,-0.90
2023-02-14T02:16:04.469Z,-0.90
2023-02-14T02:18:44.202Z,-1.10
2023-02-14T02:21:57.715Z,-1.20
2023-02-14T02:24:32.941Z,-1.20
2023-02-14T02:27:29.262Z,-1.20
2023-02-14T02:30:44.394Z,-1.20
2023-02-14T02:33:42.132Z,-1.20
2023-02-14T02:36:32.713Z,-1.10
2023-02-14T02:39:15.532Z,-1.20
2023-02-14T02:41:57.016Z,-1.30
2023-02-14T02:44:31.899Z,-1.10
2023-02-14T02:47:04.629Z,-1.30
2023-02-14T02:49:41.227Z,-1.30
2023-02-14T02:52:15.920Z,-1.30
2023-02-14T02:54:44.903Z,-1.40
2023-02-14T02:57:13.483Z,-1.30
2023-02-14T02:59:43.914Z,-1.30
2023-02-14T03:02:13.628Z,-1.40
2023-02-14T03:04:45.365Z,-1.50
2023-02-14T03:07:13.707Z,-1.70
2023-02-14T03:09:57.597Z,-1.30
2023-02-14T03:12:41.943Z,-1.40
2023-02-14T03:15:14.929Z,-1.30
2023-02-14T03:17:47.373Z,-1.30
2023-02-14T03:20:20.546Z,-1.30
2023-02-14T03:22:56.627Z,-1.30
2023-02-14T03:25:38.699Z,-1.20
2023-02-14T03:28:15.097Z,-1.10
2023-02-14T03:30:49.727Z,-0.90
2023-02-14T03:33:23.661Z,-0.90
2023-02-14T03:35:57.134Z,-0.90
2023-02-14T03:38:33.535Z,-0.90
2023-02-14T03:41:03.797Z,-0.80
2023-02-14T03:43:34.385Z,-0.80
2023-02-14T03:46:05.240Z,-0.90
2023-02-14T03:48:33.517Z,-0.90
2023-02-14T03:51:01.451Z,-0.90
2023-02-14T03:53:32.888Z,-1.00
2023-02-14T03:56:08.324Z,-1.00
2023-02-14T03:58:38.871Z,-1.00
2023-02-14T04:01:11.391Z,-1.10
2023-02-14T04:03:40.791Z,-1.10
2023-02-14T04:06:07.739Z,-1.20
2023-02-14T04:08:35.868Z,-1.10
2023-02-14T04:11:04.989Z,-1.10
2023-02-14T04:13:31.988Z,-0.90
2023-02-14T04:15:58.859Z,-0.80
2023-02-14T04:18:25.753Z,-0.80
2023-02-14T04:20:52.667Z,-0.70
2023-02-14T04:23:19.504Z,-0.60
2023-02-14T04:25:47.614Z,-0.50
2023-02-14T04:28:14.524Z,-0.50
2023-02-14T04:30:41.270Z,-0.50
2023-02-14T04:33:08.083Z,-0.50
2023-02-14T04:35:35.237Z,-0.50
2023-02-14T04:38:02.044Z,-0.50
2023-02-14T04:40:29.282Z,-0.60
2023-02-14T04:42:58.682Z,-0.60
2023-02-14T04:45:25.511Z,-0.60
2023-02-14T04:47:52.215Z,-0.60
2023-02-14T04:50:19.596Z,-0.70
2023-02-14T04:52:46.546Z,-0.60
2023-02-14T04:55:13.329Z,-0.70
2023-02-14T04:57:40.104Z,-0.70
2023-02-14T05:00:09.370Z,-0.80
2023-02-14T05:02:36.814Z,-0.80
2023-02-14T05:05:05.334Z,-0.90
2023-02-14T05:07:32.085Z,-1.10
2023-02-14T05:09:58.840Z,-1.20
2023-02-14T05:12:25.599Z,-1.20
2023-02-14T05:14:52.403Z,-1.20
2023-02-14T05:17:20.481Z,-1.30
2023-02-14T05:19:47.234Z,-1.30
2023-02-14T05:22:14.037Z,-1.30
2023-02-14T05:24:40.837Z,-1.30
2023-02-14T05:27:07.557Z,-1.10
2023-02-14T05:29:34.291Z,-1.10
2023-02-14T05:32:01.155Z,-1.00
2023-02-14T05:34:29.483Z,-0.80
2023-02-14T05:36:56.174Z,-0.70
2023-02-14T05:39:22.972Z,-0.80
2023-02-14T05:41:51.848Z,-0.70
2023-02-14T05:44:18.640Z,-0.70
2023-02-14T05:46:45.391Z,-0.70
2023-02-14T05:49:12.130Z,-0.70
2023-02-14T05:51:40.202Z,-0.70
2023-02-14T05:54:09.404Z,-0.70
2023-02-14T05:56:37.622Z,-0.60
2023-02-14T05:59:04.354Z,-0.70
2023-02-14T06:01:31.063Z,-0.60
2023-02-14T06:03:57.790Z,-0.80
2023-02-14T06:06:24.601Z,-0.90
2023-02-14T06:08:52.674Z,-1.10
2023-02-14T06:11:19.388Z,-1.10
2023-02-14T06:13:46.152Z,-1.20
2023-02-14T06:16:12.961Z,-1.20
2023-02-14T06:18:39.757Z,-1.20
2023-02-14T06:21:06.778Z,-1.20
2023-02-14T06:23:33.514Z,-1.20
2023-02-14T06:26:01.614Z,-1.20
2023-02-14T06:28:28.388Z,-1.10
2023-02-14T06:30:55.320Z,-1.20
2023-02-14T06:33:22.242Z,-1.20
2023-02-14T06:35:49.047Z,-1.20
2023-02-14T06:38:17.934Z,-1.00
2023-02-14T06:40:44.699Z,-1.20
2023-02-14T06:43:12.769Z,-1.20
2023-02-14T06:45:40.748Z,-1.30
2023-02-14T06:48:07.514Z,-1.10
2023-02-14T06:50:34.844Z,-1.20
2023-02-14T06:53:01.696Z,-1.20
2023-02-14T06:55:28.480Z,-1.10
2023-02-14T06:57:55.446Z,-1.10
2023-02-14T07:00:23.850Z,-1.10
2023-02-14T07:02:50.643Z,-1.10
2023-02-14T07:05:17.643Z,-1.10
2023-02-14T07:07:45.620Z,-1.10
2023-02-14T07:10:13.207Z,-1.10
2023-02-14T07:12:39.958Z,-1.00
2023-02-14T07:15:07.776Z,-1.00
2023-02-14T07:17:36.576Z,-0.90
2023-02-14T07:20:04.503Z,-0.90
2023-02-14T07:22:31.227Z,-0.90
2023-02-14T07:24:58.050Z,-0.80
2023-02-14T07:27:26.237Z,-0.90
2023-02-14T07:29:53.058Z,-0.80
2023-02-14T07:32:20.049Z,-0.80
2023-02-14T07:34:49.230Z,-0.60
2023-02-14T07:37:16.032Z,-0.70
2023-02-14T07:39:43.124Z,-0.60
2023-02-14T07:42:09.948Z,-0.70
2023-02-14T07:44:37.134Z,-0.60
2023-02-14T07:47:04.163Z,-0.60
2023-02-14T07:49:30.909Z,-0.50
2023-02-14T07:51:59.256Z,-0.50
2023-02-14T07:54:27.071Z,-0.50
2023-02-14T07:56:54.188Z,-0.40
2023-02-14T07:59:21.478Z,-0.40
2023-02-14T08:01:48.297Z,-0.30
2023-02-14T08:04:15.077Z,-0.30
2023-02-14T08:06:42.940Z,-0.20
2023-02-14T08:09:11.043Z,-0.10
2023-02-14T08:11:38.288Z,0.00
2023-02-14T08:14:05.362Z,0.10
2023-02-14T08:16:32.214Z,0.20
2023-02-14T08:18:58.979Z,0.30
2023-02-14T08:21:25.858Z,0.40
2023-02-14T08:23:52.583Z,0.50
2023-02-14T08:26:20.722Z,0.60
2023-02-14T08:28:47.516Z,0.60
2023-02-14T08:31:34.301Z,0.70
2023-02-14T08:34:02.230Z,0.90
2023-02-14T08:36:28.997Z,0.90
2023-02-14T08:38:56.089Z,1.10
2023-02-14T08:41:24.696Z,1.10
2023-02-14T08:43:51.903Z,1.20
2023-02-14T08:46:18.722Z,1.30
2023-02-14T08:48:45.787Z,1.40
2023-02-14T08:51:14.136Z,1.60
2023-02-14T08:53:42.243Z,1.80
2023-02-14T08:56:12.732Z,1.90
2023-02-14T08:58:41.004Z,2.10
2023-02-14T09:01:11.868Z,2.20
2023-02-14T09:03:39.353Z,2.30
2023-02-14T09:06:08.091Z,2.40
2023-02-14T09:08:35.709Z,2.40
2023-02-14T09:11:07.255Z,2.40
2023-02-14T09:13:34.063Z,2.60
2023-02-14T09:16:05.176Z,2.70
2023-02-14T09:18:32.369Z,3.10
2023-02-14T09:20:59.494Z,3.20
2023-02-14T09:23:26.509Z,3.30
2023-02-14T09:26:00.617Z,3.50
2023-02-14T09:28:27.717Z,3.60
2023-02-14T09:30:54.680Z,3.60
2023-02-14T09:33:22.868Z,3.90
2023-02-14T09:35:49.714Z,3.70
2023-02-14T09:38:16.724Z,3.80
2023-02-14T09:40:43.600Z,4.00
2023-02-14T09:43:15.376Z,4.20
2023-02-14T09:45:46.778Z,4.30
2023-02-14T09:48:26.103Z,4.60
2023-02-14T09:50:58.060Z,4.70
2023-02-14T09:53:27.545Z,5.00
2023-02-14T09:56:06.588Z,5.10
2023-02-14T09:58:36.328Z,5.20
2023-02-14T10:01:10.806Z,5.40
2023-02-14T10:03:57.490Z,5.60
2023-02-14T10:06:50.316Z,5.70
2023-02-14T10:09:33.366Z,5.70
2023-02-14T10:12:01.435Z,5.80
2023-02-14T10:14:31.618Z,6.10
2023-02-14T10:17:02.443Z,6.30
2023-02-14T10:19:34.706Z,6.30
2023-02-14T10:22:04.128Z,6.50
2023-02-14T10:24:37.357Z,6.50
2023-02-14T10:27:11.134Z,6.30
2023-02-14T10:29:38.295Z,6.50
2023-02-14T10:32:09.197Z,6.70
2023-02-14T10:34:41.780Z,6.60
2023-02-14T10:37:27.686Z,7.10
2023-02-14T10:40:09.562Z,7.20
2023-02-14T10:42:46.857Z,7.10
2023-02-14T10:45:22.686Z,6.90
2023-02-14T10:48:00.244Z,7.10
2023-02-14T10:50:37.148Z,6.90
2023-02-14T10:53:12.665Z,7.60
2023-02-14T10:55:47.135Z,7.50
2023-02-14T10:58:17.387Z,7.60
2023-02-14T11:00:57.946Z,7.90
2023-02-14T11:03:25.990Z,7.90
2023-02-14T11:05:54.067Z,8.30
2023-02-14T11:08:26.842Z,8.30
2023-02-14T11:10:55.725Z,8.50
2023-02-14T11:13:34.727Z,8.60
2023-02-14T11:16:04.370Z,8.40
2023-02-14T11:18:32.833Z,8.70
2023-02-14T11:21:03.474Z,8.40
2023-02-14T11:23:37.732Z,8.60
2023-02-14T11:26:08.411Z,8.60
2023-02-14T11:28:41.001Z,9.40
2023-02-14T11:31:09.365Z,9.00
2023-02-14T11:33:39.974Z,9.10
2023-02-14T11:36:11.967Z,9.50
2023-02-14T11:38:40.451Z,9.30
2023-02-14T11:41:09.536Z,9.00
2023-02-14T11:43:38.216Z,9.30
2023-02-14T11:46:08.432Z,9.30
2023-02-14T11:48:38.581Z,9.30
2023-02-14T11:51:09.340Z,9.30
2023-02-14T11:53:44.604Z,9.40
2023-02-14T11:56:12.560Z,9.70
2023-02-14T11:58:45.238Z,9.70
2023-02-14T12:01:20.154Z,9.90
2023-02-14T12:03:48.918Z,9.90
2023-02-14T12:06:25.473Z,10.00
2023-02-14T12:09:09.934Z,9.60
2023-02-14T12:11:38.161Z,9.80
2023-02-14T12:14:04.953Z,9.80
2023-02-14T12:16:38.943Z,10.20
2023-02-14T12:19:08.084Z,10.00
2023-02-14T12:21:57.985Z,10.20
2023-02-14T12:24:31.950Z,10.00
2023-02-14T12:27:06.339Z,10.10
2023-02-14T12:29:37.847Z,10.00
2023-02-14T12:32:16.366Z,10.00
2023-02-14T12:34:43.166Z,10.10
2023-02-14T12:37:30.823Z,10.20
2023-02-14T12:40:12.022Z,10.40
2023-02-14T12:42:54.411Z,10.10
2023-02-14T12:45:29.566Z,10.30
2023-02-14T12:48:05.138Z,10.50
2023-02-14T12:50:38.896Z,10.40
2023-02-14T12:53:40.223Z,10.40
2023-02-14T12:56:13.427Z,10.60
2023-02-14T12:58:51.852Z,10.90
2023-02-14T13:01:38.755Z,10.90
2023-02-14T13:04:40.975Z,10.50
2023-02-14T13:07:16.069Z,10.90
2023-02-14T13:09:48.753Z,10.80
2023-02-14T13:12:28.564Z,10.90
2023-02-14T13:15:04.522Z,10.80
2023-02-14T13:17:37.939Z,10.40
2023-02-14T13:20:34.690Z,10.90
2023-02-14T13:23:05.014Z,10.50
2023-02-14T13:25:37.408Z,10.80
2023-02-14T13:28:06.802Z,10.60
2023-02-14T13:30:35.350Z,10.90
2023-02-14T13:33:06.368Z,10.90
2023-02-14T13:35:34.321Z,11.10
2023-02-14T13:38:06.556Z,11.40
2023-02-14T13:40:36.167Z,11.10
2023-02-14T13:43:03.791Z,11.00
2023-02-14T13:46:03.835Z,11.20
2023-02-14T13:48:30.933Z,11.10
2023-02-14T13:51:00.301Z,10.90
2023-02-14T13:53:40.038Z,11.30
2023-02-14T13:56:32.466Z,10.90
2023-02-14T13:59:01.351Z,11.30
2023-02-14T14:01:29.530Z,11.30
2023-02-14T14:03:59.591Z,11.20
2023-02-14T14:06:27.361Z,11.20
2023-02-14T14:08:55.090Z,11.00
2023-02-14T14:11:50.930Z,10.90
2023-02-14T14:14:30.797Z,10.90
2023-02-14T14:16:58.807Z,11.00
2023-02-14T14:19:39.975Z,10.90
2023-02-14T14:22:09.691Z,11.00
2023-02-14T14:24:39.624Z,10.70
2023-02-14T14:27:15.822Z,10.70
2023-02-14T14:29:47.110Z,10.50
2023-02-14T14:32:17.962Z,10.40
2023-02-14T14:34:49.707Z,10.30
2023-02-14T14:37:18.615Z,10.10
2023-02-14T14:39:50.023Z,10.00
2023-02-14T14:42:19.156Z,9.90
2023-02-14T14:44:48.450Z,9.80
2023-02-14T14:47:19.633Z,9.70
2023-02-14T14:49:46.827Z,9.50
2023-02-14T14:52:28.986Z,9.50
2023-02-14T14:54:57.237Z,9.40
2023-02-14T14:57:25.574Z,9.40
2023-02-14T15:00:17.482Z,9.30
2023-02-14T15:02:55.714Z,9.30
2023-02-14T15:05:25.216Z,9.20
2023-02-14T15:07:54.139Z,9.20
2023-02-14T15:10:21.794Z,9.00
2023-02-14T15:12:50.639Z,9.10
2023-02-14T15:15:18.040Z,9.10
2023-02-14T15:17:46.759Z,9.10
2023-02-14T15:20:17.390Z,9.10
2023-02-14T15:22:46.338Z,9.00
2023-02-14T15:25:17.143Z,9.00
2023-02-14T15:27:44.146Z,9.00
2023-02-14T15:30:26.895Z,8.90
2023-02-14T15:32:54.662Z,8.80
2023-02-14T15:35:24.962Z,8.70
2023-02-14T15:37:52.590Z,8.70
2023-02-14T15:40:23.896Z,8.80
2023-02-14T15:42:51.978Z,8.70
2023-02-14T15:45:23.124Z,8.70
2023-02-14T15:47:52.332Z,8.60
2023-02-14T15:50:20.892Z,8.60
2023-02-14T15:52:48.513Z,8.50
2023-02-14T15:55:18.841Z,8.70
2023-02-14T15:57:53.893Z,8.60
2023-02-14T16:00:23.759Z,8.40
2023-02-14T16:02:53.967Z,8.20
2023-02-14T16:05:23.143Z,8.30
2023-02-14T16:07:59.100Z,8.40
2023-02-14T16:10:27.479Z,8.30
2023-02-14T16:12:57.734Z,8.10
2023-02-14T16:15:28.330Z,8.10
2023-02-14T16:17:55.250Z,7.90
2023-02-14T16:20:29.045Z,7.90
2023-02-14T16:23:14.825Z,7.70
2023-02-14T16:25:42.070Z,7.60
2023-02-14T16:28:08.973Z,7.40
2023-02-14T16:30:37.816Z,7.40
2023-02-14T16:33:05.904Z,7.40
2023-02-14T16:35:33.095Z,7.30
2023-02-14T16:37:59.845Z,7.10
2023-02-14T16:40:28.504Z,7.10
2023-02-14T16:42:55.245Z,6.90
2023-02-14T16:45:22.076Z,6.90
2023-02-14T16:47:50.227Z,6.70
2023-02-14T16:50:17.540Z,6.80
2023-02-14T16:52:47.564Z,6.60
2023-02-14T16:55:16.312Z,6.60
2023-02-14T16:57:46.085Z,6.50
2023-02-14T17:00:14.434Z,6.40
2023-02-14T17:02:43.873Z,6.30
2023-02-14T17:05:12.621Z,6.10
2023-02-14T17:07:42.146Z,6.00
2023-02-14T17:10:14.190Z,5.90
2023-02-14T17:12:43.363Z,5.80
2023-02-14T17:15:14.982Z,5.70
2023-02-14T17:17:42.744Z,5.70
2023-02-14T17:20:10.291Z,5.50
2023-02-14T17:22:38.432Z,5.40
2023-02-14T17:25:06.129Z,5.20
2023-02-14T17:27:32.871Z,5.10
2023-02-14T17:29:59.699Z,5.10
2023-02-14T17:32:26.731Z,5.00
2023-02-14T17:34:53.560Z,5.00
2023-02-14T17:37:20.370Z,4.90
2023-02-14T17:39:48.422Z,4.90
2023-02-14T17:42:15.172Z,4.90
2023-02-14T17:44:41.954Z,4.80
2023-02-14T17:47:08.694Z,4.80
2023-02-14T17:49:35.406Z,4.90
2023-02-14T17:52:02.497Z,4.60
2023-02-14T17:54:29.321Z,4.60
2023-02-14T17:56:57.441Z,4.50
2023-02-14T17:59:24.203Z,4.50
2023-02-14T18:01:51.023Z,4.40
2023-02-14T18:04:18.052Z,4.30
2023-02-14T18:06:44.858Z,4.30
2023-02-14T18:09:11.634Z,4.20
2023-02-14T18:11:40.150Z,4.10
2023-02-14T18:14:08.802Z,4.10
2023-02-14T18:16:37.856Z,4.10
2023-02-14T18:19:04.522Z,4.20
2023-02-14T18:21:33.040Z,4.10
2023-02-14T18:24:00.211Z,3.90
2023-02-14T18:26:29.302Z,3.90
2023-02-14T18:28:55.908Z,3.80
2023-02-14T18:31:24.015Z,4.00
2023-02-14T18:33:50.987Z,3.90
2023-02-14T18:36:20.990Z,3.80
2023-02-14T18:38:48.945Z,3.70
2023-02-14T18:41:18.161Z,3.60
2023-02-14T18:43:45.306Z,3.40
2023-02-14T18:46:13.720Z,3.40
2023-02-14T18:48:42.304Z,3.10
2023-02-14T18:51:11.045Z,2.90
2023-02-14T18:53:38.996Z,2.90
2023-02-14T18:56:06.963Z,3.00
2023-02-14T18:58:34.245Z,3.30
2023-02-14T19:01:07.989Z,3.40
2023-02-14T19:03:34.806Z,3.40
2023-02-14T19:06:03.182Z,3.30
2023-02-14T19:08:31.030Z,3.30
2023-02-14T19:10:58.036Z,3.10
2023-02-14T19:13:24.984Z,3.10
2023-02-14T19:15:52.185Z,3.10
2023-02-14T19:18:18.948Z,2.80
2023-02-14T19:20:45.727Z,2.80
2023-02-14T19:23:13.900Z,2.80
2023-02-14T19:25:40.615Z,2.80
2023-02-14T19:28:07.342Z,2.70
2023-02-14T19:30:34.094Z,2.50
2023-02-14T19:33:00.849Z,2.50
2023-02-14T19:35:27.603Z,2.30
2023-02-14T19:37:54.489Z,2.30
2023-02-14T19:40:24.115Z,2.30
2023-02-14T19:42:52.137Z,2.10
2023-02-14T19:45:18.897Z,2.00
2023-02-14T19:47:47.351Z,2.10
2023-02-14T19:50:14.690Z,2.10
2023-02-14T19:52:41.407Z,2.10
2023-02-14T19:55:08.304Z,2.00
2023-02-14T19:57:38.729Z,1.90
2023-02-14T20:00:06.904Z,1.60
2023-02-14T20:02:33.622Z,1.70
2023-02-14T20:05:00.352Z,1.70
2023-02-14T20:07:27.231Z,1.70
2023-02-14T20:09:55.114Z,1.80
2023-02-14T20:12:21.797Z,1.80
2023-02-14T20:14:51.655Z,1.70
2023-02-14T20:17:19.555Z,1.80
2023-02-14T20:19:46.323Z,1.70
2023-02-14T20:22:13.034Z,1.70
2023-02-14T20:24:39.900Z,1.80
2023-02-14T20:27:06.653Z,1.70
2023-02-14T20:29:33.359Z,1.70
2023-02-14T20:32:01.526Z,1.70
2023-02-14T20:34:28.557Z,1.60
2023-02-14T20:36:55.782Z,1.60
2023-02-14T20:39:28.316Z,1.60
2023-02-14T20:41:55.271Z,1.60
2023-02-14T20:44:22.601Z,1.60
2023-02-14T20:46:51.402Z,1.40
2023-02-14T20:49:19.914Z,1.50
2023-02-14T20:51:47.482Z,1.40
2023-02-14T20:54:14.220Z,1.30
2023-02-14T20:56:40.951Z,1.10
2023-02-14T20:59:09.689Z,1.20
2023-02-14T21:01:38.310Z,1.20
2023-02-14T21:04:05.476Z,1.10
2023-02-14T21:06:35.513Z,1.10
2023-02-14T21:09:02.792Z,0.90
2023-02-14T21:11:29.707Z,1.10
2023-02-14T21:13:59.744Z,0.80
2023-02-14T21:16:28.078Z,0.70
2023-02-14T21:18:57.238Z,0.80
2023-02-14T21:21:29.143Z,0.80
2023-02-14T21:23:57.312Z,0.80
2023-02-14T21:26:24.235Z,0.80
2023-02-14T21:28:51.618Z,0.90
2023-02-14T21:31:20.612Z,0.70
2023-02-14T21:33:49.160Z,0.60
2023-02-14T21:36:18.196Z,0.70
2023-02-14T21:38:45.003Z,0.50
2023-02-14T21:41:15.135Z,0.40
2023-02-14T21:43:43.590Z,0.50
2023-02-14T21:46:12.152Z,0.60
2023-02-14T21:48:39.493Z,0.50
2023-02-14T21:51:07.037Z,0.50
2023-02-14T21:53:33.948Z,0.40
2023-02-14T21:56:05.346Z,0.50
2023-02-14T21:58:33.439Z,0.30
2023-02-14T22:01:00.517Z,0.20
2023-02-14T22:03:27.540Z,0.10
2023-02-14T22:06:01.517Z,0.30
2023-02-14T22:08:28.723Z,0.10
2023-02-14T22:10:55.697Z,0.20
2023-02-14T22:13:22.645Z,0.10
2023-02-14T22:15:51.768Z,0.10
2023-02-14T22:18:18.759Z,0.20
2023-02-14T22:20:45.503Z,-0.10
2023-02-14T22:23:12.214Z,0.00
2023-02-14T22:25:38.952Z,0.00
2023-02-14T22:28:05.796Z,0.00
2023-02-14T22:30:32.545Z,0.00
2023-02-14T22:33:00.600Z,0.00
2023-02-14T22:35:27.357Z,0.00
2023-02-14T22:37:54.107Z,-0.10
2023-02-14T22:40:20.993Z,-0.10
2023-02-14T22:42:47.748Z,-0.10
2023-02-14T22:45:14.553Z,0.00
2023-02-14T22:47:41.336Z,0.00
2023-02-14T22:50:12.288Z,-0.20
2023-02-14T22:52:39.042Z,-0.20
2023-02-14T22:55:06.543Z,-0.20
2023-02-14T22:57:33.335Z,-0.10
2023-02-14T23:00:00.097Z,-0.20
2023-02-14T23:02:26.984Z,-0.10
2023-02-14T23:04:55.138Z,-0.40
2023-02-14T23:07:24.976Z,-0.30
2023-02-14T23:09:53.216Z,-0.40
2023-02-14T23:12:20.340Z,-0.40
2023-02-14T23:14:47.118Z,-0.30
2023-02-14T23:17:15.665Z,-0.30
2023-02-14T23:19:43.100Z,-0.50
2023-02-14T23:22:12.308Z,-0.30
2023-02-14T23:24:41.233Z,-0.40
2023-02-14T23:27:09.491Z,-0.20
2023-02-14T23:29:36.964Z,-0.30
2023-02-14T23:32:04.413Z,-0.30
2023-02-14T23:34:33.381Z,-0.50
2023-02-14T23:37:00.160Z,-0.40
2023-02-14T23:39:29.156Z,-0.40
2023-02-14T23:41:57.133Z,-0.60
2023-02-14T23:44:25.070Z,-1.00
2023-02-14T23:46:53.827Z,-1.00
2023-02-14T23:49:20.993Z,-0.80
2023-02-14T23:51:49.061Z,-0.70
2023-02-14T23:54:16.846Z,-0.70
2023-02-14T23:56:44.333Z,-0.70
2023-02-14T23:59:14.122Z,-0.90
